sensor_id;sensor_type;location;lat;lon;timestamp;temperature;humidity
70593;DHT22;58294;42.988;20.338;2022-10-31T00:01:14;205.60;1612.80
70593;DHT22;58294;42.988;20.338;2022-10-31T00:03:40;205.60;1612.80
70593;DHT22;58294;42.988;20.338;2022-10-31T00:06:06;205.60;1612.80
70593;DHT22;58294;42.988;20.338;2022-10-31T00:08:32;205.60;1612.80
70593;DHT22;58294;42.988;20.338;2022-10-31T00:10:57;205.50;1612.80
70593;DHT22;58294;42.988;20.338;2022-10-31T00:13:23;205.40;1612.80
70593;DHT22;58294;42.988;20.338;2022-10-31T00:15:49;205.40;1612.80
70593;DHT22;58294;42.988;20.338;2022-10-31T00:18:15;205.40;1638.40
70593;DHT22;58294;42.988;20.338;2022-10-31T00:20:41;205.30;1638.40
70593;DHT22;58294;42.988;20.338;2022-10-31T00:23:07;205.30;1638.40
70593;DHT22;58294;42.988;20.338;2022-10-31T00:25:36;205.20;1638.40
70593;DHT22;58294;42.988;20.338;2022-10-31T00:28:04;205.20;1638.40
70593;DHT22;58294;42.988;20.338;2022-10-31T00:30:30;205.20;1638.40
70593;DHT22;58294;42.988;20.338;2022-10-31T00:32:56;205.20;1638.40
70593;DHT22;58294;42.988;20.338;2022-10-31T00:35:22;205.30;1638.40
70593;DHT22;58294;42.988;20.338;2022-10-31T00:37:48;205.20;1638.40
70593;DHT22;58294;42.988;20.338;2022-10-31T00:40:13;205.20;1638.40
70593;DHT22;58294;42.988;20.338;2022-10-31T00:42:40;205.20;1638.40
70593;DHT22;58294;42.988;20.338;2022-10-31T00:45:08;205.10;1638.40
70593;DHT22;58294;42.988;20.338;2022-10-31T00:47:34;205.20;1664.00
70593;DHT22;58294;42.988;20.338;2022-10-31T00:50:00;205.10;1664.00
70593;DHT22;58294;42.988;20.338;2022-10-31T00:52:26;205.10;1664.00
70593;DHT22;58294;42.988;20.338;2022-10-31T00:54:52;205.00;1664.00
70593;DHT22;58294;42.988;20.338;2022-10-31T00:57:17;205.00;1664.00
70593;DHT22;58294;42.988;20.338;2022-10-31T00:59:43;205.00;1664.00
70593;DHT22;58294;42.988;20.338;2022-10-31T01:02:09;205.00;1664.00
70593;DHT22;58294;42.988;20.338;2022-10-31T01:04:35;205.00;1664.00
70593;DHT22;58294;42.988;20.338;2022-10-31T01:07:01;205.00;1638.40
70593;DHT22;58294;42.988;20.338;2022-10-31T01:09:26;204.90;1638.40
70593;DHT22;58294;42.988;20.338;2022-10-31T01:11:52;204.90;1664.00
70593;DHT22;58294;42.988;20.338;2022-10-31T01:14:18;204.80;1664.00
70593;DHT22;58294;42.988;20.338;2022-10-31T01:16:44;204.80;1664.00
70593;DHT22;58294;42.988;20.338;2022-10-31T01:19:09;204.80;1689.60
70593;DHT22;58294;42.988;20.338;2022-10-31T01:21:35;180.10;1689.60
70593;DHT22;58294;42.988;20.338;2022-10-31T01:24:01;180.10;1689.60
70593;DHT22;58294;42.988;20.338;2022-10-31T01:26:31;180.10;1715.20
70593;DHT22;58294;42.988;20.338;2022-10-31T01:28:59;180.10;1689.60
70593;DHT22;58294;42.988;20.338;2022-10-31T01:31:31;180.00;1715.20
70593;DHT22;58294;42.988;20.338;2022-10-31T01:33:57;180.00;1689.60
70593;DHT22;58294;42.988;20.338;2022-10-31T01:36:37;180.00;1689.60
70593;DHT22;58294;42.988;20.338;2022-10-31T01:39:09;180.00;1664.00
70593;DHT22;58294;42.988;20.338;2022-10-31T01:41:37;179.90;1689.60
70593;DHT22;58294;42.988;20.338;2022-10-31T01:49:30;179.90;1664.00
70593;DHT22;58294;42.988;20.338;2022-10-31T01:52:04;179.90;1689.60
70593;DHT22;58294;42.988;20.338;2022-10-31T01:54:34;179.90;1689.60
70593;DHT22;58294;42.988;20.338;2022-10-31T01:57:02;179.80;1689.60
70593;DHT22;58294;42.988;20.338;2022-10-31T01:59:30;179.70;1689.60
70593;DHT22;58294;42.988;20.338;2022-10-31T02:01:57;179.60;1715.20
70593;DHT22;58294;42.988;20.338;2022-10-31T02:04:24;179.60;1715.20
70593;DHT22;58294;42.988;20.338;2022-10-31T02:07:02;179.60;1715.20
70593;DHT22;58294;42.988;20.338;2022-10-31T02:09:30;179.50;1740.80
70593;DHT22;58294;42.988;20.338;2022-10-31T02:11:58;179.50;1740.80
70593;DHT22;58294;42.988;20.338;2022-10-31T02:14:26;179.50;1715.20
70593;DHT22;58294;42.988;20.338;2022-10-31T02:16:54;179.50;1740.80
70593;DHT22;58294;42.988;20.338;2022-10-31T02:22:30;179.50;1740.80
70593;DHT22;58294;42.988;20.338;2022-10-31T02:27:53;179.50;1740.80
70593;DHT22;58294;42.988;20.338;2022-10-31T02:33:22;179.60;1715.20
70593;DHT22;58294;42.988;20.338;2022-10-31T02:36:05;179.60;1740.80
70593;DHT22;58294;42.988;20.338;2022-10-31T02:39:08;179.50;1740.80
70593;DHT22;58294;42.988;20.338;2022-10-31T02:44:39;179.40;1740.80
70593;DHT22;58294;42.988;20.338;2022-10-31T02:47:32;179.40;1740.80
70593;DHT22;58294;42.988;20.338;2022-10-31T02:50:03;179.50;1766.40
70593;DHT22;58294;42.988;20.338;2022-10-31T02:52:33;179.40;1766.40
70593;DHT22;58294;42.988;20.338;2022-10-31T02:54:58;179.40;1766.40
70593;DHT22;58294;42.988;20.338;2022-10-31T02:57:35;179.30;1740.80
70593;DHT22;58294;42.988;20.338;2022-10-31T03:00:05;179.30;1740.80
70593;DHT22;58294;42.988;20.338;2022-10-31T03:08:17;179.20;1740.80
70593;DHT22;58294;42.988;20.338;2022-10-31T03:10:47;179.20;1740.80
70593;DHT22;58294;42.988;20.338;2022-10-31T03:13:23;179.20;1766.40
70593;DHT22;58294;42.988;20.338;2022-10-31T03:15:53;179.20;1766.40
70593;DHT22;58294;42.988;20.338;2022-10-31T03:18:27;154.50;1766.40
70593;DHT22;58294;42.988;20.338;2022-10-31T03:21:13;154.50;1766.40
70593;DHT22;58294;42.988;20.338;2022-10-31T03:23:41;179.20;1740.80
70593;DHT22;58294;42.988;20.338;2022-10-31T03:26:10;179.20;1740.80
70593;DHT22;58294;42.988;20.338;2022-10-31T03:28:43;179.20;1740.80
70593;DHT22;58294;42.988;20.338;2022-10-31T03:31:11;154.50;1740.80
70593;DHT22;58294;42.988;20.338;2022-10-31T03:33:40;154.50;1740.80
70593;DHT22;58294;42.988;20.338;2022-10-31T03:36:08;179.20;1740.80
70593;DHT22;58294;42.988;20.338;2022-10-31T03:38:37;154.50;1740.80
70593;DHT22;58294;42.988;20.338;2022-10-31T03:41:05;154.40;1766.40
70593;DHT22;58294;42.988;20.338;2022-10-31T03:43:38;154.30;1766.40
70593;DHT22;58294;42.988;20.338;2022-10-31T03:46:06;154.30;1766.40
70593;DHT22;58294;42.988;20.338;2022-10-31T03:48:32;154.30;1766.40
70593;DHT22;58294;42.988;20.338;2022-10-31T03:51:25;154.30;1792.00
70593;DHT22;58294;42.988;20.338;2022-10-31T03:54:05;154.20;1792.00
70593;DHT22;58294;42.988;20.338;2022-10-31T03:56:46;154.20;1792.00
70593;DHT22;58294;42.988;20.338;2022-10-31T03:59:22;154.20;1792.00
70593;DHT22;58294;42.988;20.338;2022-10-31T04:01:53;154.20;1817.60
70593;DHT22;58294;42.988;20.338;2022-10-31T04:04:21;154.20;1792.00
70593;DHT22;58294;42.988;20.338;2022-10-31T04:06:48;154.20;1817.60
70593;DHT22;58294;42.988;20.338;2022-10-31T04:09:16;154.20;1817.60
70593;DHT22;58294;42.988;20.338;2022-10-31T04:11:50;154.20;1792.00
70593;DHT22;58294;42.988;20.338;2022-10-31T04:14:17;154.10;1792.00
70593;DHT22;58294;42.988;20.338;2022-10-31T04:16:43;154.10;1817.60
70593;DHT22;58294;42.988;20.338;2022-10-31T04:19:11;154.10;1817.60
70593;DHT22;58294;42.988;20.338;2022-10-31T04:21:37;154.10;1817.60
70593;DHT22;58294;42.988;20.338;2022-10-31T04:24:03;154.10;1792.00
70593;DHT22;58294;42.988;20.338;2022-10-31T04:26:29;154.00;1817.60
70593;DHT22;58294;42.988;20.338;2022-10-31T04:28:54;154.00;1817.60
70593;DHT22;58294;42.988;20.338;2022-10-31T04:31:20;154.00;1817.60
70593;DHT22;58294;42.988;20.338;2022-10-31T04:33:46;154.00;1817.60
70593;DHT22;58294;42.988;20.338;2022-10-31T04:36:12;154.00;1792.00
70593;DHT22;58294;42.988;20.338;2022-10-31T04:38:38;154.00;1817.60
70593;DHT22;58294;42.988;20.338;2022-10-31T04:41:03;154.00;1817.60
70593;DHT22;58294;42.988;20.338;2022-10-31T04:43:29;153.90;1817.60
70593;DHT22;58294;42.988;20.338;2022-10-31T04:45:55;153.90;1792.00
70593;DHT22;58294;42.988;20.338;2022-10-31T04:48:21;153.90;1817.60
70593;DHT22;58294;42.988;20.338;2022-10-31T04:50:47;153.80;1817.60
70593;DHT22;58294;42.988;20.338;2022-10-31T04:53:12;153.90;1817.60
70593;DHT22;58294;42.988;20.338;2022-10-31T04:55:38;153.90;1817.60
70593;DHT22;58294;42.988;20.338;2022-10-31T04:58:04;153.90;1817.60
70593;DHT22;58294;42.988;20.338;2022-10-31T05:00:30;153.90;1817.60
70593;DHT22;58294;42.988;20.338;2022-10-31T05:02:57;153.90;1817.60
70593;DHT22;58294;42.988;20.338;2022-10-31T05:05:29;153.90;1817.60
70593;DHT22;58294;42.988;20.338;2022-10-31T05:07:55;153.90;1817.60
70593;DHT22;58294;42.988;20.338;2022-10-31T05:10:26;153.90;1843.20
70593;DHT22;58294;42.988;20.338;2022-10-31T05:12:58;153.80;1843.20
70593;DHT22;58294;42.988;20.338;2022-10-31T05:15:25;153.90;1868.80
70593;DHT22;58294;42.988;20.338;2022-10-31T05:17:52;153.80;1868.80
70593;DHT22;58294;42.988;20.338;2022-10-31T05:20:20;153.90;1843.20
70593;DHT22;58294;42.988;20.338;2022-10-31T05:22:48;153.80;1868.80
70593;DHT22;58294;42.988;20.338;2022-10-31T05:25:15;153.80;1843.20
70593;DHT22;58294;42.988;20.338;2022-10-31T05:27:50;153.90;1843.20
70593;DHT22;58294;42.988;20.338;2022-10-31T05:30:23;153.80;1843.20
70593;DHT22;58294;42.988;20.338;2022-10-31T05:32:50;153.80;1843.20
70593;DHT22;58294;42.988;20.338;2022-10-31T05:35:24;153.70;1843.20
70593;DHT22;58294;42.988;20.338;2022-10-31T05:37:50;153.70;1843.20
70593;DHT22;58294;42.988;20.338;2022-10-31T05:40:18;153.60;1868.80
70593;DHT22;58294;42.988;20.338;2022-10-31T05:42:44;153.60;1868.80
70593;DHT22;58294;42.988;20.338;2022-10-31T05:45:15;153.60;1868.80
70593;DHT22;58294;42.988;20.338;2022-10-31T05:47:41;153.60;1843.20
70593;DHT22;58294;42.988;20.338;2022-10-31T05:50:08;153.70;1868.80
70593;DHT22;58294;42.988;20.338;2022-10-31T05:52:34;153.70;1843.20
70593;DHT22;58294;42.988;20.338;2022-10-31T05:55:00;153.70;1843.20
70593;DHT22;58294;42.988;20.338;2022-10-31T05:57:26;153.90;1843.20
70593;DHT22;58294;42.988;20.338;2022-10-31T05:59:53;153.90;1843.20
70593;DHT22;58294;42.988;20.338;2022-10-31T06:02:20;153.90;1843.20
70593;DHT22;58294;42.988;20.338;2022-10-31T06:04:45;153.90;1868.80
70593;DHT22;58294;42.988;20.338;2022-10-31T06:07:11;153.80;1843.20
70593;DHT22;58294;42.988;20.338;2022-10-31T06:09:37;153.80;1868.80
70593;DHT22;58294;42.988;20.338;2022-10-31T06:12:03;153.90;1868.80
70593;DHT22;58294;42.988;20.338;2022-10-31T06:14:29;153.90;1894.40
70593;DHT22;58294;42.988;20.338;2022-10-31T06:16:55;154.00;1920.00
70593;DHT22;58294;42.988;20.338;2022-10-31T06:19:21;154.00;1920.00
70593;DHT22;58294;42.988;20.338;2022-10-31T06:21:47;154.10;1920.00
70593;DHT22;58294;42.988;20.338;2022-10-31T06:24:13;154.20;1945.60
70593;DHT22;58294;42.988;20.338;2022-10-31T06:26:40;154.20;1920.00
70593;DHT22;58294;42.988;20.338;2022-10-31T06:29:06;154.30;1945.60
70593;DHT22;58294;42.988;20.338;2022-10-31T06:31:32;154.40;1971.20
70593;DHT22;58294;42.988;20.338;2022-10-31T06:33:58;154.50;1945.60
70593;DHT22;58294;42.988;20.338;2022-10-31T06:36:24;179.20;1971.20
70593;DHT22;58294;42.988;20.338;2022-10-31T06:38:49;179.30;1971.20
70593;DHT22;58294;42.988;20.338;2022-10-31T06:41:15;179.50;1971.20
70593;DHT22;58294;42.988;20.338;2022-10-31T06:43:41;179.50;1971.20
70593;DHT22;58294;42.988;20.338;2022-10-31T06:46:07;179.70;1971.20
70593;DHT22;58294;42.988;20.338;2022-10-31T06:48:33;179.70;1945.60
70593;DHT22;58294;42.988;20.338;2022-10-31T06:51:00;179.80;1971.20
70593;DHT22;58294;42.988;20.338;2022-10-31T06:53:27;180.00;1996.80
70593;DHT22;58294;42.988;20.338;2022-10-31T06:55:56;180.10;1971.20
70593;DHT22;58294;42.988;20.338;2022-10-31T06:58:22;204.80;1971.20
70593;DHT22;58294;42.988;20.338;2022-10-31T07:00:48;204.80;1971.20
70593;DHT22;58294;42.988;20.338;2022-10-31T07:03:15;205.00;1996.80
70593;DHT22;58294;42.988;20.338;2022-10-31T07:05:41;205.10;1996.80
70593;DHT22;58294;42.988;20.338;2022-10-31T07:08:10;205.30;2022.40
70593;DHT22;58294;42.988;20.338;2022-10-31T07:10:37;205.40;2022.40
70593;DHT22;58294;42.988;20.338;2022-10-31T07:13:05;205.50;2022.40
70593;DHT22;58294;42.988;20.338;2022-10-31T07:15:38;205.60;2022.40
70593;DHT22;58294;42.988;20.338;2022-10-31T07:18:06;230.40;2022.40
70593;DHT22;58294;42.988;20.338;2022-10-31T07:20:32;230.50;2022.40
70593;DHT22;58294;42.988;20.338;2022-10-31T07:22:58;230.60;1996.80
70593;DHT22;58294;42.988;20.338;2022-10-31T07:25:24;230.70;2022.40
70593;DHT22;58294;42.988;20.338;2022-10-31T07:27:50;230.90;2022.40
70593;DHT22;58294;42.988;20.338;2022-10-31T07:30:16;231.00;2022.40
70593;DHT22;58294;42.988;20.338;2022-10-31T07:32:47;231.20;2022.40
70593;DHT22;58294;42.988;20.338;2022-10-31T07:35:27;231.30;2022.40
70593;DHT22;58294;42.988;20.338;2022-10-31T07:37:54;256.10;2022.40
70593;DHT22;58294;42.988;20.338;2022-10-31T07:40:21;256.30;2022.40
70593;DHT22;58294;42.988;20.338;2022-10-31T07:42:48;256.40;2022.40
70593;DHT22;58294;42.988;20.338;2022-10-31T07:45:17;256.60;2048.00
70593;DHT22;58294;42.988;20.338;2022-10-31T07:47:48;256.80;2048.00
70593;DHT22;58294;42.988;20.338;2022-10-31T07:50:23;281.60;2048.00
70593;DHT22;58294;42.988;20.338;2022-10-31T07:53:05;281.70;2073.60
70593;DHT22;58294;42.988;20.338;2022-10-31T07:55:31;281.90;2073.60
70593;DHT22;58294;42.988;20.338;2022-10-31T07:58:10;282.10;2048.00
70593;DHT22;58294;42.988;20.338;2022-10-31T08:00:37;282.30;2048.00
70593;DHT22;58294;42.988;20.338;2022-10-31T08:03:05;282.40;2048.00
70593;DHT22;58294;42.988;20.338;2022-10-31T08:05:32;307.20;2099.20
70593;DHT22;58294;42.988;20.338;2022-10-31T08:07:58;307.40;2073.60
70593;DHT22;58294;42.988;20.338;2022-10-31T08:10:25;307.50;2073.60
70593;DHT22;58294;42.988;20.338;2022-10-31T08:12:58;307.70;2048.00
70593;DHT22;58294;42.988;20.338;2022-10-31T08:15:24;307.80;2073.60
70593;DHT22;58294;42.988;20.338;2022-10-31T08:17:50;308.00;2048.00
70593;DHT22;58294;42.988;20.338;2022-10-31T08:20:16;332.80;2073.60
70593;DHT22;58294;42.988;20.338;2022-10-31T08:22:42;332.90;2073.60
70593;DHT22;58294;42.988;20.338;2022-10-31T08:25:09;333.00;2048.00
70593;DHT22;58294;42.988;20.338;2022-10-31T08:27:35;333.20;2073.60
70593;DHT22;58294;42.988;20.338;2022-10-31T08:30:01;333.40;2099.20
70593;DHT22;58294;42.988;20.338;2022-10-31T08:32:27;333.60;2048.00
70593;DHT22;58294;42.988;20.338;2022-10-31T08:34:53;358.40;1996.80
70593;DHT22;58294;42.988;20.338;2022-10-31T08:37:18;358.60;1971.20
70593;DHT22;58294;42.988;20.338;2022-10-31T08:39:46;358.70;1996.80
70593;DHT22;58294;42.988;20.338;2022-10-31T08:42:12;358.80;1996.80
70593;DHT22;58294;42.988;20.338;2022-10-31T08:44:38;359.00;1945.60
70593;DHT22;58294;42.988;20.338;2022-10-31T08:47:04;359.10;1971.20
70593;DHT22;58294;42.988;20.338;2022-10-31T08:49:30;359.20;1971.20
70593;DHT22;58294;42.988;20.338;2022-10-31T08:51:56;384.00;1971.20
70593;DHT22;58294;42.988;20.338;2022-10-31T08:54:21;384.20;1945.60
70593;DHT22;58294;42.988;20.338;2022-10-31T08:56:47;384.30;1920.00
70593;DHT22;58294;42.988;20.338;2022-10-31T08:59:13;384.50;1868.80
70593;DHT22;58294;42.988;20.338;2022-10-31T09:06:31;384.90;1894.40
70593;DHT22;58294;42.988;20.338;2022-10-31T09:08:57;409.60;1920.00
70593;DHT22;58294;42.988;20.338;2022-10-31T09:11:23;409.80;2227.20
70593;DHT22;58294;42.988;20.338;2022-10-31T09:13:49;410.10;2329.60
70593;DHT22;58294;42.988;20.338;2022-10-31T09:16:15;410.30;2278.40
70593;DHT22;58294;42.988;20.338;2022-10-31T09:18:40;435.20;2124.80
70593;DHT22;58294;42.988;20.338;2022-10-31T09:21:07;435.30;2355.20
70593;DHT22;58294;42.988;20.338;2022-10-31T09:23:33;435.90;2355.20
70593;DHT22;58294;42.988;20.338;2022-10-31T09:26:00;461.20;2380.80
70593;DHT22;58294;42.988;20.338;2022-10-31T09:28:26;486.50;2380.80
70593;DHT22;58294;42.988;20.338;2022-10-31T09:35:46;538.40;2406.40
70593;DHT22;58294;42.988;20.338;2022-10-31T09:38:15;563.90;2432.00
70593;DHT22;58294;42.988;20.338;2022-10-31T09:40:52;588.90;2432.00
70593;DHT22;58294;42.988;20.338;2022-10-31T09:46:31;614.60;2432.00
70593;DHT22;58294;42.988;20.338;2022-10-31T09:54:42;640.70;2432.00
70593;DHT22;58294;42.988;20.338;2022-10-31T09:57:14;665.60;2406.40
70593;DHT22;58294;42.988;20.338;2022-10-31T09:59:41;666.10;2252.80
70593;DHT22;58294;42.988;20.338;2022-10-31T10:02:32;666.40;2176.00
70593;DHT22;58294;42.988;20.338;2022-10-31T10:05:01;691.30;2252.80
70593;DHT22;58294;42.988;20.338;2022-10-31T10:10:00;692.00;1843.20
70593;DHT22;58294;42.988;20.338;2022-10-31T10:19:21;717.20;1945.60
70593;DHT22;58294;42.988;20.338;2022-10-31T10:29:50;742.90;1587.20
70593;DHT22;58294;42.988;20.338;2022-10-31T10:34:25;743.30;1612.80
70593;DHT22;58294;42.988;20.338;2022-10-31T10:36:53;743.20;1484.80
70593;DHT22;58294;42.988;20.338;2022-10-31T10:39:27;743.20;1484.80
70593;DHT22;58294;42.988;20.338;2022-10-31T10:41:57;743.20;1433.60
70593;DHT22;58294;42.988;20.338;2022-10-31T10:44:46;768.00;1382.40
70593;DHT22;58294;42.988;20.338;2022-10-31T10:50:19;768.30;1408.00
70593;DHT22;58294;42.988;20.338;2022-10-31T11:00:46;793.70;1356.80
70593;DHT22;58294;42.988;20.338;2022-10-31T11:03:14;793.70;1356.80
70593;DHT22;58294;42.988;20.338;2022-10-31T11:08:33;794.10;1228.80
70593;DHT22;58294;42.988;20.338;2022-10-31T11:16:02;794.50;1152.00
70593;DHT22;58294;42.988;20.338;2022-10-31T11:18:31;819.20;1177.60
70593;DHT22;58294;42.988;20.338;2022-10-31T11:21:00;819.20;1228.80
70593;DHT22;58294;42.988;20.338;2022-10-31T11:23:28;819.40;1075.20
70593;DHT22;58294;42.988;20.338;2022-10-31T11:26:03;819.30;1075.20
70593;DHT22;58294;42.988;20.338;2022-10-31T11:28:31;819.40;1152.00
70593;DHT22;58294;42.988;20.338;2022-10-31T11:31:08;819.40;1049.60
70593;DHT22;58294;42.988;20.338;2022-10-31T11:33:35;794.30;947.20
70593;DHT22;58294;42.988;20.338;2022-10-31T11:36:13;794.10;1024.00
70593;DHT22;58294;42.988;20.338;2022-10-31T11:38:41;793.60;921.60
70593;DHT22;58294;42.988;20.338;2022-10-31T11:41:17;768.50;870.40
70593;DHT22;58294;42.988;20.338;2022-10-31T11:43:53;743.30;870.40
70593;DHT22;58294;42.988;20.338;2022-10-31T11:46:36;742.70;819.20
70593;DHT22;58294;42.988;20.338;2022-10-31T11:49:04;717.50;819.20
70593;DHT22;58294;42.988;20.338;2022-10-31T11:51:33;717.00;793.60
70593;DHT22;58294;42.988;20.338;2022-10-31T11:54:01;691.90;819.20
70593;DHT22;58294;42.988;20.338;2022-10-31T11:56:40;691.70;819.20
70593;DHT22;58294;42.988;20.338;2022-10-31T11:59:22;691.30;870.40
70593;DHT22;58294;42.988;20.338;2022-10-31T12:01:50;666.40;870.40
70593;DHT22;58294;42.988;20.338;2022-10-31T12:04:16;666.10;870.40
70593;DHT22;58294;42.988;20.338;2022-10-31T12:06:46;665.90;870.40
70593;DHT22;58294;42.988;20.338;2022-10-31T12:09:23;665.60;870.40
70593;DHT22;58294;42.988;20.338;2022-10-31T12:12:17;640.80;870.40
70593;DHT22;58294;42.988;20.338;2022-10-31T12:20:40;640.10;896.00
70593;DHT22;58294;42.988;20.338;2022-10-31T12:23:47;640.00;921.60
70593;DHT22;58294;42.988;20.338;2022-10-31T12:37:38;614.90;896.00
70593;DHT22;58294;42.988;20.338;2022-10-31T12:40:35;614.90;896.00
70593;DHT22;58294;42.988;20.338;2022-10-31T12:43:50;614.80;896.00
70593;DHT22;58294;42.988;20.338;2022-10-31T12:49:18;614.70;921.60
70593;DHT22;58294;42.988;20.338;2022-10-31T12:57:47;614.50;921.60
70593;DHT22;58294;42.988;20.338;2022-10-31T13:00:16;614.50;921.60
70593;DHT22;58294;42.988;20.338;2022-10-31T13:02:58;614.50;921.60
70593;DHT22;58294;42.988;20.338;2022-10-31T13:05:33;614.50;896.00
70593;DHT22;58294;42.988;20.338;2022-10-31T13:08:10;614.40;896.00
70593;DHT22;58294;42.988;20.338;2022-10-31T13:10:46;614.40;896.00
70593;DHT22;58294;42.988;20.338;2022-10-31T13:13:23;614.40;896.00
70593;DHT22;58294;42.988;20.338;2022-10-31T13:16:00;589.70;896.00
70593;DHT22;58294;42.988;20.338;2022-10-31T13:18:28;589.70;896.00
70593;DHT22;58294;42.988;20.338;2022-10-31T13:20:55;589.60;896.00
70593;DHT22;58294;42.988;20.338;2022-10-31T13:23:34;589.60;896.00
70593;DHT22;58294;42.988;20.338;2022-10-31T13:26:11;589.60;921.60
70593;DHT22;58294;42.988;20.338;2022-10-31T13:29:11;589.60;921.60
70593;DHT22;58294;42.988;20.338;2022-10-31T13:31:33;589.50;921.60
70593;DHT22;58294;42.988;20.338;2022-10-31T13:34:03;589.60;921.60
70593;DHT22;58294;42.988;20.338;2022-10-31T13:36:48;589.60;896.00
70593;DHT22;58294;42.988;20.338;2022-10-31T13:39:58;589.50;896.00
70593;DHT22;58294;42.988;20.338;2022-10-31T13:45:13;589.50;870.40
70593;DHT22;58294;42.988;20.338;2022-10-31T13:47:41;589.50;870.40
70593;DHT22;58294;42.988;20.338;2022-10-31T13:52:49;589.40;896.00
70593;DHT22;58294;42.988;20.338;2022-10-31T13:55:35;589.40;870.40
70593;DHT22;58294;42.988;20.338;2022-10-31T13:58:04;589.40;870.40
70593;DHT22;58294;42.988;20.338;2022-10-31T14:00:31;589.40;870.40
70593;DHT22;58294;42.988;20.338;2022-10-31T14:03:01;589.40;870.40
70593;DHT22;58294;42.988;20.338;2022-10-31T14:05:34;589.40;844.80
70593;DHT22;58294;42.988;20.338;2022-10-31T14:08:02;589.40;870.40
70593;DHT22;58294;42.988;20.338;2022-10-31T14:10:30;589.40;870.40
70593;DHT22;58294;42.988;20.338;2022-10-31T14:13:22;589.40;870.40
70593;DHT22;58294;42.988;20.338;2022-10-31T14:16:04;589.30;870.40
70593;DHT22;58294;42.988;20.338;2022-10-31T14:18:35;589.30;870.40
70593;DHT22;58294;42.988;20.338;2022-10-31T14:23:51;589.20;870.40
70593;DHT22;58294;42.988;20.338;2022-10-31T14:29:01;589.20;896.00
70593;DHT22;58294;42.988;20.338;2022-10-31T14:31:37;589.20;896.00
70593;DHT22;58294;42.988;20.338;2022-10-31T14:37:15;589.10;896.00
70593;DHT22;58294;42.988;20.338;2022-10-31T14:42:44;589.10;896.00
70593;DHT22;58294;42.988;20.338;2022-10-31T14:47:56;589.00;896.00
70593;DHT22;58294;42.988;20.338;2022-10-31T14:56:14;563.90;921.60
70593;DHT22;58294;42.988;20.338;2022-10-31T14:58:45;563.80;896.00
70593;DHT22;58294;42.988;20.338;2022-10-31T15:01:30;563.70;921.60
70593;DHT22;58294;42.988;20.338;2022-10-31T15:04:17;563.50;921.60
70593;DHT22;58294;42.988;20.338;2022-10-31T15:06:47;563.30;921.60
70593;DHT22;58294;42.988;20.338;2022-10-31T15:09:23;563.20;947.20
70593;DHT22;58294;42.988;20.338;2022-10-31T15:11:49;538.40;921.60
70593;DHT22;58294;42.988;20.338;2022-10-31T15:14:29;538.30;921.60
70593;DHT22;58294;42.988;20.338;2022-10-31T15:17:01;538.10;921.60
70593;DHT22;58294;42.988;20.338;2022-10-31T15:19:29;538.00;921.60
70593;DHT22;58294;42.988;20.338;2022-10-31T15:21:57;537.90;921.60
70593;DHT22;58294;42.988;20.338;2022-10-31T15:24:33;537.70;947.20
70593;DHT22;58294;42.988;20.338;2022-10-31T15:26:59;537.60;947.20
70593;DHT22;58294;42.988;20.338;2022-10-31T15:29:26;512.80;921.60
70593;DHT22;58294;42.988;20.338;2022-10-31T15:32:00;512.70;921.60
70593;DHT22;58294;42.988;20.338;2022-10-31T15:37:00;512.30;947.20
70593;DHT22;58294;42.988;20.338;2022-10-31T15:39:26;512.10;972.80
70593;DHT22;58294;42.988;20.338;2022-10-31T15:41:57;512.00;972.80
70593;DHT22;58294;42.988;20.338;2022-10-31T15:44:30;487.30;972.80
70593;DHT22;58294;42.988;20.338;2022-10-31T15:47:26;487.10;998.40
70593;DHT22;58294;42.988;20.338;2022-10-31T15:49:54;486.90;972.80
70593;DHT22;58294;42.988;20.338;2022-10-31T15:57:56;486.60;998.40
70593;DHT22;58294;42.988;20.338;2022-10-31T16:00:30;486.50;998.40
70593;DHT22;58294;42.988;20.338;2022-10-31T16:05:55;461.70;1024.00
70593;DHT22;58294;42.988;20.338;2022-10-31T16:14:22;461.60;998.40
70593;DHT22;58294;42.988;20.338;2022-10-31T16:16:50;461.40;998.40
70593;DHT22;58294;42.988;20.338;2022-10-31T16:19:30;461.30;1049.60
70593;DHT22;58294;42.988;20.338;2022-10-31T16:22:09;461.20;1049.60
70593;DHT22;58294;42.988;20.338;2022-10-31T16:24:49;461.00;1049.60
70593;DHT22;58294;42.988;20.338;2022-10-31T16:27:19;460.90;1049.60
70593;DHT22;58294;42.988;20.338;2022-10-31T16:29:48;460.80;1075.20
70593;DHT22;58294;42.988;20.338;2022-10-31T16:35:32;436.00;1049.60
70593;DHT22;58294;42.988;20.338;2022-10-31T16:37:58;435.80;1024.00
70593;DHT22;58294;42.988;20.338;2022-10-31T16:40:24;435.70;1075.20
70593;DHT22;58294;42.988;20.338;2022-10-31T16:42:51;435.60;1075.20
70593;DHT22;58294;42.988;20.338;2022-10-31T16:45:19;435.50;1075.20
70593;DHT22;58294;42.988;20.338;2022-10-31T16:47:46;435.40;1075.20
70593;DHT22;58294;42.988;20.338;2022-10-31T16:50:16;435.40;1100.80
70593;DHT22;58294;42.988;20.338;2022-10-31T16:52:42;435.40;1075.20
70593;DHT22;58294;42.988;20.338;2022-10-31T16:55:13;435.30;1100.80
70593;DHT22;58294;42.988;20.338;2022-10-31T16:57:54;435.20;1100.80
70593;DHT22;58294;42.988;20.338;2022-10-31T17:00:25;410.40;1100.80
70593;DHT22;58294;42.988;20.338;2022-10-31T17:02:53;410.40;1126.40
70593;DHT22;58294;42.988;20.338;2022-10-31T17:05:21;410.40;1152.00
70593;DHT22;58294;42.988;20.338;2022-10-31T17:07:47;410.30;1152.00
70593;DHT22;58294;42.988;20.338;2022-10-31T17:10:14;410.30;1152.00
70593;DHT22;58294;42.988;20.338;2022-10-31T17:12:43;410.20;1126.40
70593;DHT22;58294;42.988;20.338;2022-10-31T17:15:20;410.10;1152.00
70593;DHT22;58294;42.988;20.338;2022-10-31T17:17:47;410.00;1177.60
70593;DHT22;58294;42.988;20.338;2022-10-31T17:20:22;410.00;1152.00
70593;DHT22;58294;42.988;20.338;2022-10-31T17:22:49;409.80;1152.00
70593;DHT22;58294;42.988;20.338;2022-10-31T17:25:18;409.80;1177.60
70593;DHT22;58294;42.988;20.338;2022-10-31T17:27:44;409.70;1177.60